Preview of NWS' New Version of Forecast
This preview is not operational and should not be used for support decisions.
Latest weather observations around

Boulder City Municipal Airport (KBVU)

Using English Units (Switch to International System of Units)
Date/ Time (PDT) Wind (mph) Vis. (mi) Weather Sky Cond. Temp (°F) Rel. Humidity Wind Chill (°F) Heat Index (°F) Pressure Precip. (in)
Air Dwpt 6 hour Altimeter (inHg) Sea level (inHg) 1 hr 3 hr 6 hr
Max Min
Sep 23 12:35 Calm 10 Clear CLR 86 36     17%   83          
Sep 23 12:15 ESE 6 10 Clear CLR 86 36     17%   83          
Sep 23 11:55 5 10 Clear CLR 86 34     16%   83          
Sep 23 11:35 E 9 10 Clear CLR 86 34     16%   83          
Sep 23 11:15 6 10 Clear CLR 84 32     15%   81          
Sep 23 10:55 ESE 6 10 Clear CLR 84 28     13%   81          
Sep 23 10:35 E 6 10 Clear CLR 84 27     12%   81          
Sep 23 10:15 SE 7 10 Clear CLR 82 25     12%   80          
Sep 23 09:55 Calm 10 Clear CLR 82 27     13%   80          
Sep 23 09:35 NE 5 10 Clear CLR 81 27     14%   79          
Sep 23 09:15 E 3 10 Clear CLR 81 25     13%   79          
Sep 23 08:55 Calm 10 Clear CLR 79 25     14%   77          
Sep 23 08:35 Calm 10 Clear CLR 77 25     14%   75          
Sep 23 08:15 Calm 10 Clear CLR 77 23     13%   75          
Sep 23 07:55 Calm 10 Clear CLR 75 23     14%   73          
Sep 23 07:35 Calm 10 Clear CLR 72 30     22%   69          
Sep 23 07:15 Calm 10 Clear CLR 70 27     20%              
Sep 23 06:55 NE 5 10 Clear CLR 66 28     24%              
Sep 23 06:35 NE 3 10 Clear CLR 64 30     28%              
Sep 23 06:15 NE 5 10 Partly Cloudy FEW040 SCT048 66 28     24%              
Sep 23 05:55 NE 5 10 Mostly Cloudy FEW035 BKN041 BKN049 66 27     22%              
Sep 23 05:35 N 7 10 Cloudy BKN035 OVC041 66 25     21%              
Sep 23 05:15 N 6 10 Cloudy BKN034 BKN045 OVC055 64 25     22%              
Sep 23 04:55 N 5 10 Mostly Cloudy FEW030 BKN036 BKN046 64 27     24%              
Sep 23 04:35 Calm 10 Mostly Cloudy FEW033 SCT041 BKN047 66 25     21%              
Sep 23 04:15 WNW 3 10 Partly Cloudy FEW031 SCT037 SCT044 70 19     15%              
Sep 23 03:55 WNW 6 10 Mostly Cloudy SCT036 BKN042 BKN050 68 19     16%              
Sep 23 03:35 NW 8 10 Mostly Cloudy SCT037 BKN048 68 19     16%              
Sep 23 03:15 NW 3 10 Mostly Cloudy SCT037 BKN048 66 23     19%              
Sep 23 02:55 NW 5 10 Mostly Cloudy FEW035 SCT041 BKN048 66 27     22%              
Notice The following observation data may not be complete
Sep 23 02:35 NNW 5 10 Mostly Cloudy BKN042 BKN055   25      %              
Notice The following observation data may not be complete
Sep 23 02:15 Calm 10 Partly Cloudy FEW039 SCT048 SCT055   27      %              
Sep 23 01:55 WNW 3 10 Partly Cloudy FEW039 SCT048 SCT060 66 27     22%              
Notice The following observation data may not be complete
Sep 23 01:35 NW 3 10 Mostly Cloudy FEW039 SCT047 BKN055   27      %              
Sep 23 01:15 NW 3 10 Mostly Clear FEW046 FEW055 68 27     21%              
Sep 23 00:55 Calm 10 Clear CLR 72 19     14%   69          
Sep 23 00:35 WNW 5 10 Mostly Clear FEW050 FEW060 70 27     20%              
Notice The following observation data may not be complete
Sep 23 00:15 Calm 10 Mostly Clear FEW042          %              
Sep 22 23:55 Calm 10 Clear CLR 68 30     24%              
Sep 22 23:35 Calm 10 Mostly Clear FEW040 FEW048 FEW055 70 30     23%              
Sep 22 23:15 Calm 10 Mostly Clear FEW048 72 28     20%   69          
Sep 22 22:55 NNW 3 10 Clear CLR 72 30     22%   69          
Sep 22 22:35 NW 5 10 Clear CLR 75 23     14%   73          
Sep 22 22:15 NW 3 10 Clear CLR 77 19     11%   75          
Sep 22 21:55 SW 6 10 Clear CLR 79 19     11%   77          
Sep 22 21:35 W 5 10 Clear CLR 79 19     11%   77          
Sep 22 21:15 SW 3 10 Clear CLR 81 19     10%   79          
Sep 22 20:55 S 7 10 Clear CLR 82 19     10%   79          
Sep 22 20:35 SSW 8 10 Clear CLR 82 19     10%   79          
Sep 22 20:15 5 10 Clear CLR 82 19     10%   79          
Sep 22 19:55 S 7 10 Clear CLR 82 19     10%   79          
Sep 22 19:35 SSE 10 10 Clear CLR 82 19     10%   79          
Sep 22 19:15 SSE 14 10 Clear CLR 84 19     9%   81          
Sep 22 18:55 SSE 13 10 Clear CLR 84 19     9%   81          
Sep 22 18:35 SSE 11 10 Clear   84 19     9%   81          
Sep 22 18:15 SE 13 10 Clear   86 18     8%   82          
Sep 22 17:55 SSE 14 10 Clear   86 18     8%   82          
Sep 22 17:35 SSE 15 10 Clear CLR 88        %              
Sep 22 17:15 SSE 14 10 Clear CLR 88        %              
Sep 22 16:55 S 13 10 Clear CLR 88 19     8%   83          
Sep 22 16:35 SSE 14 10 Clear CLR 88        %              
Sep 22 16:15 SE 14 10 Clear CLR 90        %              
Sep 22 15:55 SSE 11 10 Clear CLR 90 19     8%   85          
Sep 22 15:35   10 Clear CLR 90 19     8%   85          
Sep 22 15:15 SE 9 10 Clear CLR 88 19     8%   83          
Sep 22 14:55 6 10 Clear CLR 90        %              
Sep 22 14:35 S 10 10 Clear CLR 90        %              
Sep 22 14:15 Calm 10 Clear CLR 88 23     9%   83          
Sep 22 13:55 SW 3 10 Clear CLR 86 23     10%   82          
Sep 22 13:35 5 10 Clear CLR 86 23     10%   82          
Sep 22 13:15 Calm 10 Clear CLR 84 25     11%   81          
Sep 22 12:55 Calm 10 Clear CLR 84 25     11%   81          
Sep 22 12:35 E 3 10 Clear CLR 82 25     12%   80          
Sep 22 12:15 E 8 10 Clear CLR 84 27     12%   81          
Sep 22 11:55 6 10 Clear CLR 82 27     13%   80          
Sep 22 11:35 ENE 5 10 Clear CLR 82 27     13%   80          
Sep 22 11:15 ENE 7 10 Clear CLR 81 27     14%   79          
Sep 22 10:55 NE 6 10 Clear CLR 81 27     14%   79          
Sep 22 10:35 Calm 10 Clear CLR 79 27     15%   77          
Sep 22 10:15 SSW 6 10 Clear CLR 79 25     14%   77          
Sep 22 09:55 SSW 3 10 Clear CLR 75 25     15%   73          
Sep 22 09:35 WSW 5 10 Clear CLR 73        %              
Sep 22 09:15 WSW 3 10 Clear CLR 72        %              
Sep 22 08:55 WSW 5 10 Clear CLR 70        %              
Sep 22 08:35 Calm 10 Clear CLR 68        %              
Sep 22 08:15 E 5 10 Clear CLR 66        %              
Sep 22 07:55 S 5 10 Clear CLR 66        %              
Sep 22 07:35 Calm 10 Clear CLR 66 32     28%              
Sep 22 07:15 Calm 10 Clear CLR 61 32     34%              
Sep 22 06:55 ENE 3 10 Clear CLR 59 30     33%              
Sep 22 06:35 Calm 10 Clear CLR 59 32     36%              
Sep 22 06:15 Calm 10 Clear CLR 59 30     33%              
Sep 22 05:55 Calm 10 Clear CLR 59 30     33%              
Sep 22 05:35 Calm 10 Mostly Clear FEW046 FEW055 FEW065 61 30     31%              
Sep 22 05:15 NNE 5 10 Partly Cloudy FEW034 FEW042 SCT048 59 32     36%              
Sep 22 04:55 Calm 10 Partly Cloudy SCT048 SCT055 63 28     27%              
Sep 22 04:35 Calm 10 Partly Cloudy FEW036 SCT047 64 27     24%              
Sep 22 04:15 Calm 10 Partly Cloudy FEW042 FEW049 SCT060 63 28     27%              
Sep 22 03:55 NW 6 10 Partly Cloudy FEW046 SCT055 63 25     24%              
Sep 22 03:35 W 5 10 Partly Cloudy FEW039 FEW048 SCT055 66 25     21%              
Sep 22 03:15 N 7 10 Mostly Clear FEW047 66 28     24%              
Sep 22 02:55 N 6 10 Mostly Clear FEW043 FEW050 FEW055 64 32     30%              
Sep 22 02:35 NW 5 10 Partly Cloudy FEW041 SCT049 SCT055 66 30     26%              
Sep 22 02:15 NNW 7 10 Partly Cloudy FEW041 SCT050 64 30     28%              
Sep 22 01:55 N 5 10 Mostly Clear FEW046 FEW055 64 32     30%              
Sep 22 01:35 NNE 3 10 Mostly Clear FEW043 FEW050 63 34     34%              
Sep 22 01:15 Calm 10 Mostly Clear FEW050 64 32     30%              
Sep 22 00:55 NNE 5 10 Mostly Clear FEW043 FEW050 66 32     28%              
Sep 22 00:35 Calm 10 Clear CLR 64 34     32%              
Sep 22 00:15 Calm 10 Clear CLR 64 34     32%              
Sep 21 23:55 Calm 10 Clear CLR 68 30     24%              
Sep 21 23:35 Calm 10 Clear CLR 66 34     30%              
Sep 21 23:15 Calm 10 Clear CLR 66 34     30%              
Sep 21 22:55 Calm 10 Clear CLR 70 30     23%              
Sep 21 22:35 Calm 10 Mostly Clear FEW048 66 34     30%              
Sep 21 22:15 Calm 10 Mostly Clear FEW046 72 25     17%   69          
Sep 21 21:55 NNW 6 10 Mostly Clear FEW042 FEW050 70 32     25%              
Sep 21 21:35 N 9 10 Mostly Clear FEW041 70 32     25%              
Sep 21 21:15 N 7 10 Clear CLR 72 32     23%   70          
Sep 21 20:55 NNE 8 10 Clear CLR 72 32     23%   70          
Sep 21 20:35 NNE 7 10 Clear CLR 72 34     25%   70          
Sep 21 20:15 N 7 10 Clear CLR 73 32     22%   71          
Sep 21 19:55 N 7 10 Clear CLR 73 32     22%   71          
Sep 21 19:35 NNE 5 10 Clear CLR 75 30     19%   73          
Sep 21 19:15 NNE 6 10 Clear CLR 77 30     18%   75          
Sep 21 18:55 NE 6 10 Clear CLR 79 28     16%   77          
Sep 21 18:35 NE 8 10 Clear CLR 81 27     14%   79          
Sep 21 18:15 NE 8 10 Clear CLR 82 27     13%   80          
Sep 21 17:55 NE 7 10 Clear CLR 84 25     11%   81          
Sep 21 17:35 NE 9 10 Clear CLR 84 25     11%   81          
Sep 21 17:15 ENE 6 10 Clear CLR 84 23     11%   81          
Sep 21 16:55 NNE 6 10 Clear CLR 84 25     11%   81          
Sep 21 16:35 NE 10 10 Clear CLR 84 25     11%   81          
Sep 21 16:15 E 7 10 Clear CLR 84 25     11%   81          
Sep 21 15:55 E 6 10 Clear CLR 84 25     11%   81          
Sep 21 15:35 Calm 10 Clear CLR 84 25     11%   81          
Sep 21 15:15 NNE 6 10 Clear CLR 84 25     11%   81          
Sep 21 14:55 ESE 8 10 Clear CLR 84 23     11%   81          
Sep 21 14:35 5 10 Clear CLR 82 25     12%   80          
Sep 21 14:15 5 10 Clear CLR 82 27     13%   80          
Sep 21 13:55 ESE 6 10 Clear CLR 82 27     13%   80          
Sep 21 13:35 5 10 Clear CLR 81 27     14%   79          
Sep 21 13:15 5 10 Clear CLR 81 27     14%   79          
Sep 21 12:55 ENE 8 10 Clear CLR 81 27     14%   79          
Sep 21 12:35 NE 7 10 Clear CLR 81 27     14%   79          
Sep 21 12:15 NE 8 10 Clear CLR 81 28     15%   79          
Sep 21 11:55 6 10 Clear CLR 79 28     16%   77          
Sep 21 11:35 6 10 Clear CLR 79 30     17%   77          
Sep 21 11:15 NNW 10 10 Clear CLR 79 28     16%   77          
Sep 21 10:55 7 10 Clear CLR 77 28     17%   75          
Sep 21 10:35 N 10 10 Clear CLR 79 28     16%   77          
Sep 21 10:15 N 10 10 Clear CLR 77 28     17%   75          
Sep 21 09:55 NNW 10 10 Clear CLR 75 28     18%   73          
Sep 21 09:35 N 10 10 Clear CLR 75 28     18%   73          
Sep 21 09:15 N 13 10 Clear CLR 73 28     19%   71          
Sep 21 08:55 N 11 10 Clear CLR 73 28     19%   71          
Sep 21 08:35 NNW 11 10 Clear CLR 72 28     20%   69          
Sep 21 08:15 N 6 10 Clear CLR 72 28     20%   69          
Sep 21 07:55 NNW 7 10 Clear CLR 70 28     21%              
Sep 21 07:35 NNW 9 10 Clear CLR 68 28     23%              
Sep 21 07:15 NNW 6 10 Clear CLR 66 27     22%              
Sep 21 06:55 NW 6 10 Clear CLR 63 27     25%              
Sep 21 06:35 3 10 Clear CLR 63 27     25%              
Sep 21 06:15 NNW 6 10 Clear CLR 61 27     27%              
Sep 21 05:55 Calm 10 Partly Cloudy FEW032 FEW040 SCT050 61 28     29%              
Sep 21 05:35 Calm 10 Mostly Cloudy FEW034 SCT040 BKN045 59 30     33%              
Sep 21 05:15 Calm 10 Partly Cloudy SCT039 SCT045 SCT050 59 28     31%              
Sep 21 04:55 SE 5 10 Partly Cloudy FEW040 SCT050 63 27     25%              
Sep 21 04:35 Calm 10 Partly Cloudy FEW038 SCT048 SCT055 63 25     24%              
Sep 21 04:15 Calm 10 Mostly Cloudy FEW039 SCT044 BKN050 63 27     25%              
Sep 21 03:55 3 10 Partly Cloudy FEW040 SCT045 SCT050 66 23     19%              
Sep 21 03:35 W 3 10 Partly Cloudy FEW046 SCT055 66 23     19%              
Sep 21 03:15 Calm 10 Mostly Clear FEW046 FEW050 66 23     19%              
Sep 21 02:55 Calm 10 Mostly Clear FEW049 FEW055 66 25     21%              
Sep 21 02:35 Calm 10 Clear CLR 66 27     22%              
Sep 21 02:15 N 10 10 Mostly Clear FEW050 FEW060 68 27     21%              
Sep 21 01:55 NE 5 10 Clear CLR 63 34     34%              
Sep 21 01:35 N 3 10 Clear CLR 61 36     39%              
Sep 21 01:15 Calm 10 Mostly Clear FEW043 FEW050 61 34     36%              
Sep 21 00:55 Calm 10 Mostly Clear FEW045 63 34     34%              
Sep 21 00:35 Calm 10 Mostly Clear FEW045 64 28     26%              
Sep 21 00:15 Calm 10 Mostly Clear FEW042 FEW048 64 34     32%              
Sep 20 23:55 Calm 10 Clear CLR 68 28     23%              
Sep 20 23:35 NNW 3 10 Mostly Clear FEW047 FEW080 68 28     23%              
Sep 20 23:15 NW 5 10 Mostly Clear FEW047 66 30     26%              
Sep 20 22:55 NNW 3 10 Partly Cloudy SCT046 68 25     19%              
Sep 20 22:35 NW 6 10 Partly Cloudy SCT046 68 27     21%              
Sep 20 22:15 NE 7 10 Mostly Clear FEW036 FEW046 68 32     26%              
Sep 20 21:55 ENE 6 10 Mostly Clear FEW036 70 32     25%              
Sep 20 21:35 NNE 8 10 Clear CLR 68 34     28%              
Sep 20 21:15 NNE 6 10 Clear CLR 68 32     26%              
Sep 20 20:55 NNE 6 10 Mostly Clear FEW042 FEW049 FEW055 70 34     26%              
Sep 20 20:35 NNE 7 10 Partly Cloudy SCT045 SCT055 70 34     26%              
Sep 20 20:15 NE 7 10 Mostly Clear FEW046 70 34     26%              
Sep 20 19:55 NNE 6 10 Mostly Clear FEW040 FEW046 FEW050 73 30     20%   71          
Sep 20 19:35 NE 6 10 Mostly Clear FEW039 FEW050 73 30     20%   71          
Sep 20 19:15 ENE 6 10 Clear CLR 75 28     18%   73          
Sep 20 18:55 NE 5 10 Clear CLR 75 30     19%   73          
Sep 20 18:35 ENE 3 10 Clear CLR 79 27     15%   77          
Sep 20 18:15 NE 5 10 Clear CLR 81 23     12%   79          
Sep 20 17:55 Calm 10 Clear CLR 81 21     11%   79          
Sep 20 17:35 Calm 10 Clear CLR 81 21     11%   79          
Sep 20 17:15 NE 5 10 Clear   81 23     12%   79          
Sep 20 16:55 Calm 10 Clear   81 21     11%   79          
Sep 20 16:35 7 10 Clear CLR 82 21     10%   80          
Sep 20 16:15 5 10 Clear CLR 82 19     10%   79          
Sep 20 15:55 NNW 8 10 Clear CLR 81 21     11%   79          
Sep 20 15:35 NNW 9 10 Clear   82 23     11%   80          
Sep 20 15:15 NW 8 10 Clear   81 21     11%   79          
Sep 20 14:55 Calm 10 Clear   81        %              
Sep 20 14:35 WNW 8 10 Clear CLR 82        %              
Sep 20 14:15 WNW 7 10 Clear CLR 81        %              
Sep 20 13:55 6 10 Clear CLR 81 23     12%   79          
Sep 20 13:35 W 7 10 Clear CLR 81 23     12%   79          
Sep 20 13:15 N 8 10 Clear CLR 81 27     14%   79          
Sep 20 12:55 NNW 9 10 Clear CLR 79 27     15%   77          
Sep 20 12:35 W 8 10 Clear CLR 79 27     15%   77          
Sep 20 12:15 N 9 10 Clear CLR 77 25     14%   75          
Sep 20 11:55 W 6 10 Clear CLR 79 27     15%   77          
Sep 20 11:35 NW 14 10 Clear CLR 77 27     16%   75          
Sep 20 11:15 WNW 13 10 Clear CLR 77 28     17%   75          
Sep 20 10:55 NW 11 10 Clear CLR 75 30     19%   73          
Sep 20 10:35 NW 14 10 Clear CLR 75 30     19%   73          
Sep 20 10:15   10 Clear CLR 75 32     21%   73          
Sep 20 09:55 NNW 16 10 Clear CLR 73 32     22%   71          
Sep 20 09:35   10 Clear CLR 72 32     23%   70          
Sep 20 09:15   10 Clear CLR 72 32     23%   70          
Sep 20 08:55   10 Clear CLR 70 32     25%              
May 14 18:35 SSE 11 10 Clear CLR 82 27     13%   80          
May 14 12:35 E 6 10 Mostly Clear FEW100 81 32     17%   79          
May 14 10:55 3 10 Clear CLR 77 34     21%   75          
May 14 08:55 S 5 10 Clear CLR 72 32     23%   70          
May 14 04:55 Calm 10 Mostly Cloudy SCT030 BKN034 BKN040 66 30     26%              
May 14 02:15 WNW 5 10 Mostly Cloudy BKN047 BKN055 BKN085 63 32     32%              
May 14 01:15 Calm 10 Partly Cloudy SCT049 SCT055 63        %              
May 13 17:15 SSE 22 10 Clear and Windy CLR 81 32     17%   79          
May 13 12:35 SSE 17 10 Partly Cloudy SCT095 79 32     18%   77          
May 13 12:15 SSE 17 10 Mostly Cloudy BKN090 79 34     20%   77          
May 13 10:55 E 10 10 Clear CLR 77 36     22%   75          
May 13 10:35   10 Clear CLR 77 36     22%   75          
May 12 16:55 ENE 6 10 Clear CLR 79 21     12%   77          
Notice The following observation data may not be complete
May 12 13:35   10 Clear CLR          %              
May 12 11:35 E 5 10 Clear CLR 72 28     20%   69          
May 12 05:55 NNW 5 10 Clear CLR 61 36     39%              
May 12 05:35 ENE 6 10 Mostly Clear FEW085 59 36     41%              
May 12 03:55 NW 17 10 Mostly Cloudy SCT041 BKN050 BKN065 61 36     39%              
May 12 01:55   10 Cloudy FEW042 BKN050 OVC070 63 36     36%              
May 11 15:15   10 Clear CLR 91 25     9%   86          
May 11 14:35 SSW 23 10 Clear and Windy CLR 91 25     9%   86          
Jun 11 11:55   10 Clear   86 34     16%   83          
Notice The following observation data may not be complete
Jun 11 09:15   10 Clear            %              
Jun 10 16:35   10 Clear   93 30     11%   88          
Jun 10 09:35 SSE 16 10 Clear   86 36     17%   83          
Notice The following observation data may not be complete
Jun 09 16:35   10 Clear            %              
Jun 09 16:15 SW 24 10 Clear and Windy   99 34     10%   93          
Jun 09 15:55 SW 22 10 Clear and Windy   99 32     10%   93          
Jun 09 11:15 S 16 10 Clear   93 27     9%   88          
Jun 09 10:55 S 14 10 Clear   93 30     11%   88          
Jun 09 06:15 W 3 10 Clear   75 30     19%   73          
Notice The following observation data may not be complete
Jun 09 02:35   10 Clear            %              
Jun 08 13:15 S 23 10 Clear and Windy   99 32     10%   93          
Jun 08 10:55 SE 20 10 Clear and Windy   91 34     13%   87          
Jun 08 06:55 Calm 10 Clear   77 41     28%   76          
Jun 08 06:15 E 6 10 Clear   77 41     28%   76          
Jun 08 02:15 N 3 10 Clear   75 34     22%   73          
Jun 07 20:15   10 Clear   91 21     8%   86          
Notice The following observation data may not be complete
Jun 07 15:15   10 Clear            %              
Jun 07 12:55 SSE 21 10 Clear and Windy   97 27     8%   91          
Jun 07 11:35 S 17 10 Clear   95 32     11%   90          
Jun 07 11:15 SSE 22 10 Clear and Windy   93 32     11%   88          
Jun 07 10:35 SSE 14 10 Clear   91 36     14%   87          
Jun 06 11:55 SSE 17 10 Clear   100 34     10%   94          
Jun 06 03:55 NE 5 10 Clear   73 45     36%   72          
Jun 05 18:15 WSW 17 10 Clear   100 25     7%   93          
Jun 05 13:35   10 Clear   104 27     7%   97